KPOF/POF METAR and TAF weather

Enter ICAO airport designator
Station Type Date Time Source
KPOF METAR 2021/05/14 02:53 UTC NOAA

KPOF 140253Z AUTO 00000KT 10SM CLR 12/08 A3030 RMK AO2 SLP262 T01220083 53011


Station Type Date Time Source
KPOF Decoded METAR 2021/05/14 02:53 UTC NOAA

POPLAR BLUFF MUN AIRPORT, MO, United States (KPOF) 36-46N 090-19W 100M
May 13, 2021 - 10:53 PM EDT / 2021.05.14 0253 UTC
Wind: Calm:0
Visibility: 10 mile(s):0
Sky conditions: clear
Temperature: 54.0 F (12.2 C)
Dew Point: 46.9 F (8.3 C)
Relative Humidity: 77%
Pressure (altimeter): 30.3 in. Hg (1026 hPa)
Pressure tendency: 0.03 inches (1.1 hPa) higher than three hours ago
ob: KPOF 140253Z AUTO 00000KT 10SM CLR 12/08 A3030 RMK AO2 SLP262 T01220083 53011
cycle: 3

Station Type Date Time Source
KPOF TAF UTC NOAA

Error!

Example: see airport list